EGGW Airport Information

Runway Information
Runway 07 Length 7093 ft width 150 ft
Elevation 515 ft Threshold ft Heading 74
Runway 25 Length 7093 ft Width 150 ft
Elevation 508 ft Threshold 279 ft Heading 254
Airport Frequencies
Type APP Name APP Frequency 129.55 MHZ
Type ATIS Name ATIS Frequency 120.575 MHZ
Type GND Name GND Frequency 121.75 MHZ
Type TWR Name TWR Frequency 132.55 MHZ
Airport Navaids
Airport Weather Information & NOTAM
ADDS - METARS form results

(0208 UTC 26 June 2022)
Data provider http://aviationweather.gov/metar/data/
 
METAR text: EGGW 260150Z AUTO 19005KT 150V220 9999 NCD 10/08 Q1010
Conditions at: EGGW (LUTON AIRPORT , GB) observed 0150 UTC 26 June 2022
Temperature: 10.0°C (50°F)
Dewpoint: 8.0°C (46°F) [RH = 87%]
Pressure (altimeter): 29.82 inches Hg (1010.0 mb)
Winds: from the S (190 degrees) at 6 MPH (5 knots; 2.6 m/s)
Visibility: 6 or more miles (10+ km)
Ceiling: at least 12,000 feet AGL
Clouds: sky clear below 12,000 feet AGL
Weather: no significant weather observed at this time

METAR text: EGGW 260120Z AUTO 19005KT 9999 NCD 10/08 Q1010
Conditions at: EGGW (LUTON AIRPORT , GB) observed 0120 UTC 26 June 2022
Temperature: 10.0°C (50°F)
Dewpoint: 8.0°C (46°F) [RH = 87%]
Pressure (altimeter): 29.82 inches Hg (1010.0 mb)
Winds: from the S (190 degrees) at 6 MPH (5 knots; 2.6 m/s)
Visibility: 6 or more miles (10+ km)
Ceiling: at least 12,000 feet AGL
Clouds: sky clear below 12,000 feet AGL
Weather: no significant weather observed at this time

Forecast for: EGGW (LUTON AIRPORT , GB)
Text: TAF EGGW 252259Z 2600/2624 19008KT 9999 SCT040
Forecast period: 0000 UTC 26 June 2022 to 0000 UTC 27 June 2022
Forecast type: FROM: standard forecast or significant change
Winds: from the S (190 degrees) at 9 MPH (8 knots; 4.1 m/s)
Visibility: 6 or more miles (10+ km)
Ceiling: at least 12,000 feet AGL
Clouds: scattered clouds at 4000 feet AGL
Weather: no significant weather forecast for this period
Text: PROB30
Forecast period: 1000 to 1700 UTC 26 June 2022
Forecast type: TEMPORARY: The following changes expected for less than half the time period
Winds: from the SSW (200 degrees) at 17 MPH (15 knots; 7.7 m/s)
gusting to 29 MPH (25 knots; 12.9 m/s)
Visibility: missing
Ceiling: unknown
Clouds: missing
Weather: no significant weather forecast for this period